Anjeliersgracht — PCGQ — position and weather

sailwx.info

Track history (hours):
 
Tides and Currents Weather Stations Pressure Air Temp Water Temp Dewpoint Dewpoint Depression Visibility Wind Speed Wind Dir Waves Ship Positions

Anjeliersgracht

Last reported at 2014-Oct-21 12:33 UTC. Time now 2014-Oct-23 21:22 UTC.
Position N 29°55' W 090°05'.

Length 130 m; beam 19 m; draft 9 m.

Type: Cargo ship. MMSI: 244716000.

Date/timePositionNaut miles runAvg speedWind from/ knotsBaromVisibWave heightAir tempDewpointWater temp
2014-Oct-21 12:33N 29°55' W 090°05'0 0.0
2014-Oct-21 09:30N 29°55' W 090°05'  
2014-Oct-17 13:33N 25°41' W 079°59'1110.7
2014-Oct-17 12:33N 25°52' W 079°57'1110.6
2014-Oct-17 11:33N 26°02' W 079°56'1110.8
2014-Oct-17 10:33N 26°13' W 079°54'1010.5
2014-Oct-17 09:34N 26°23' W 079°53'1110.7
2014-Oct-17 08:33N 26°34' W 079°52'  
2014-Oct-14 05:16N 39°29' W 075°34'75 1.5
2014-Oct-12 05:04N 39°16' W 073°59'812.2
2014-Oct-12 04:26N 39°21' W 073°52'1112.2
2014-Oct-12 03:30N 39°29' W 073°42'1212.1
2014-Oct-12 02:33N 39°38' W 073°32'1212.2
2014-Oct-12 01:33N 39°46' W 073°20'1212.3
2014-Oct-12 00:33N 39°54' W 073°08'1212.2
2014-Oct-11 23:33N 40°03' W 072°57'1212.0
2014-Oct-11 22:33N 40°11' W 072°46'1212.1
2014-Oct-11 21:33N 40°20' W 072°35'1212.0
2014-Oct-11 20:33N 40°29' W 072°24'1211.9
2014-Oct-11 19:33N 40°37' W 072°13'1212.0
2014-Oct-11 18:33N 40°46' W 072°02'1111.4
2014-Oct-11 17:33N 40°54' W 071°52'1110.8
2014-Oct-11 16:34N 41°01' W 071°41'1413.7
2014-Oct-11 15:33N 41°12' W 071°30'7 7.3
2014-Oct-11 14:33N 41°17' W 071°36'1212.3
2014-Oct-11 13:33N 41°15' W 071°52'10 9.7
2014-Oct-11 12:33N 41°18' W 072°05'  
Track history (hours):
 
Tides and Currents Weather Stations Pressure Air Temp Water Temp Dewpoint Dewpoint Depression Visibility Wind Speed Wind Dir Waves Ship Positions

Anjeliersgracht

Last reported at 2014-Oct-21 12:33 UTC. Time now 2014-Oct-23 21:22 UTC.
Position N 29°55' W 090°05'.

Length 130 m; beam 19 m; draft 9 m.

Type: Cargo ship. MMSI: 244716000.

Date/timePositionNaut miles runAvg speedWind from/ knotsBaromVisibWave heightAir tempDewpointWater temp
2014-Oct-21 12:33N 29°55' W 090°05'0 0.0
2014-Oct-21 09:30N 29°55' W 090°05'  
2014-Oct-17 13:33N 25°41' W 079°59'1110.7
2014-Oct-17 12:33N 25°52' W 079°57'1110.6
2014-Oct-17 11:33N 26°02' W 079°56'1110.8
2014-Oct-17 10:33N 26°13' W 079°54'1010.5
2014-Oct-17 09:34N 26°23' W 079°53'1110.7
2014-Oct-17 08:33N 26°34' W 079°52'  
2014-Oct-14 05:16N 39°29' W 075°34'75 1.5
2014-Oct-12 05:04N 39°16' W 073°59'812.2
2014-Oct-12 04:26N 39°21' W 073°52'1112.2
2014-Oct-12 03:30N 39°29' W 073°42'1212.1
2014-Oct-12 02:33N 39°38' W 073°32'1212.2
2014-Oct-12 01:33N 39°46' W 073°20'1212.3
2014-Oct-12 00:33N 39°54' W 073°08'1212.2
2014-Oct-11 23:33N 40°03' W 072°57'1212.0
2014-Oct-11 22:33N 40°11' W 072°46'1212.1
2014-Oct-11 21:33N 40°20' W 072°35'1212.0
2014-Oct-11 20:33N 40°29' W 072°24'1211.9
2014-Oct-11 19:33N 40°37' W 072°13'1212.0
2014-Oct-11 18:33N 40°46' W 072°02'1111.4
2014-Oct-11 17:33N 40°54' W 071°52'1110.8
2014-Oct-11 16:34N 41°01' W 071°41'1413.7
2014-Oct-11 15:33N 41°12' W 071°30'7 7.3
2014-Oct-11 14:33N 41°17' W 071°36'1212.3
2014-Oct-11 13:33N 41°15' W 071°52'10 9.7
2014-Oct-11 12:33N 41°18' W 072°05'  

Dump ship's entire track history